aviador You're here:

TIST Decoded Metar

ST. THOMAS in VIRGIN ISL.
Report Time2017-05-25 01:00:00
UTC Time2017-05-25 01:13:53
Flight Rules mvfr MVFR
Wind080° at 08 kt
W.Decomp.*RWY 10: 7.9 kt HW 1 kt LCW
W.Rank080° ranks 2
Current wind is below 080° avg. (8.1)
Visibility9999 m
Phenomena:N/A
Clouds:Overcast 022 Hf
Expected CloudBase > 2,000 ft AGL from Temp-Dew spread
Ceiling2,200 ft
Temp29°C (ISA +14)
Dew Point24°C (74% RH)
Heat Index33.5°C
QNH1018 hPa
Density Alt1,860 ft
Elevation23 ft
Report Wrong Elevation
Raw Report
TIST 250100Z 08008KT 10SM OVC022 29/24 A3005 RMK AO2 T02890239=

Extra information for TIST:More info

Metar Taf Metar & Taf Last 4 Metars F.Rules Stats Wind Profile Meteogram Temp Stats Airport Information Weather charts Add Link Nearby VenuesMetar ALERT Operation Metar Decoded Social comments